Time;durP1;ratioP1;P1;durP2;ratioP2;P2;SDS_P1;SDS_P2;PMS_P1;PMS_P2;Temp;Humidity;BMP_temperature;BMP_pressure;BME280_temperature;BME280_humidity;BME280_pressure;Samples;Min_cycle;Max_cycle;Signal;HPM_P1;HPM_P2
2021/09/02 00:02:00;;;;;;;;;;;;;;;15.52;100.00;100180.91;5010894;28;19995;-77
2021/09/02 00:04:25;;;;;;;;;;;;;;;15.69;100.00;100173.34;4993278;28;19925;-77
2021/09/02 00:06:50;;;;;;;;;;;;;;;15.45;100.00;100175.91;5002760;28;20341;-77
2021/09/02 00:09:16;;;;;;;;;;;;;;;15.67;100.00;100181.22;4994943;28;20308;-78
2021/09/02 00:11:41;;;;;;;;;;;;;;;15.67;100.00;100176.03;4995943;28;19921;-77
2021/09/02 00:14:07;;;;;;;;;;;;;;;15.54;100.00;100179.09;5000955;28;19977;-77
2021/09/02 00:16:32;;;;;;;;;;;;;;;15.72;100.00;100175.06;5011488;28;20396;-77
2021/09/02 00:18:57;;;;;;;;;;;;;;;15.69;100.00;100184.63;4992445;28;19917;-77
2021/09/02 00:21:22;;;;;;;;;;;;;;;15.62;100.00;100177.06;4995810;28;19929;-77
2021/09/02 00:23:48;;;;;;;;;;;;;;;15.61;100.00;100170.19;4996229;28;20293;-78
2021/09/02 00:26:13;;;;;;;;;;;;;;;15.56;100.00;100172.09;5002898;28;19964;-78
2021/09/02 00:28:39;;;;;;;;;;;;;;;15.44;100.00;100174.22;4994986;28;20389;-77
2021/09/02 00:31:04;;;;;;;;;;;;;;;15.46;100.00;100180.22;4995890;28;19926;-78
2021/09/02 00:33:29;;;;;;;;;;;;;;;15.37;100.00;100182.22;5009716;28;20594;-77
2021/09/02 00:35:54;;;;;;;;;;;;;;;15.42;100.00;100188.16;5012746;28;19917;-77
2021/09/02 00:38:20;;;;;;;;;;;;;;;15.34;100.00;100180.59;4993710;28;20416;-77
2021/09/02 00:40:45;;;;;;;;;;;;;;;15.33;100.00;100175.47;4997884;28;19925;-78
2021/09/02 00:43:11;;;;;;;;;;;;;;;15.21;100.00;100187.94;4995200;28;19925;-77
2021/09/02 00:45:36;;;;;;;;;;;;;;;15.27;100.00;100181.69;4997896;28;20010;-77
2021/09/02 00:48:01;;;;;;;;;;;;;;;15.41;100.00;100176.88;4993717;28;20036;-77
2021/09/02 00:50:28;;;;;;;;;;;;;;;15.23;100.00;100177.50;4996273;28;19918;-78
2021/09/02 00:52:53;;;;;;;;;;;;;;;15.29;100.00;100174.72;4994870;28;19917;-77
2021/09/02 00:55:19;;;;;;;;;;;;;;;15.24;100.00;100176.63;4995854;28;19928;-77
2021/09/02 00:57:44;;;;;;;;;;;;;;;15.17;100.00;100180.31;5011628;28;20613;-78
2021/09/02 01:00:11;;;;;;;;;;;;;;;15.18;100.00;100171.59;4995454;28;19918;-78
2021/09/02 01:02:36;;;;;;;;;;;;;;;15.17;100.00;100175.97;4995045;28;21209;-77
2021/09/02 01:05:02;;;;;;;;;;;;;;;15.26;100.00;100175.66;4994667;28;20055;-77
2021/09/02 01:07:28;;;;;;;;;;;;;;;15.23;100.00;100174.91;4995388;28;19921;-77
2021/09/02 01:09:54;;;;;;;;;;;;;;;15.18;100.00;100174.22;4994663;28;19922;-77
2021/09/02 01:12:25;;;;;;;;;;;;;;;15.17;100.00;100169.94;5012307;28;20098;-77
2021/09/02 01:14:51;;;;;;;;;;;;;;;15.20;100.00;100169.81;4997869;28;20003;-77
2021/09/02 01:17:16;;;;;;;;;;;;;;;15.21;100.00;100166.31;4994045;28;19917;-77
2021/09/02 01:19:44;;;;;;;;;;;;;;;15.25;100.00;100168.75;4994346;28;20152;-78
2021/09/02 01:22:09;;;;;;;;;;;;;;;15.15;100.00;100171.72;4996028;28;19926;-77
2021/09/02 01:24:35;;;;;;;;;;;;;;;15.09;100.00;100164.13;4997918;28;20005;-77
2021/09/02 01:27:00;;;;;;;;;;;;;;;15.06;100.00;100160.72;4992952;28;19930;-78
2021/09/02 01:29:25;;;;;;;;;;;;;;;14.88;100.00;100166.50;4992997;28;19976;-78
2021/09/02 01:31:52;;;;;;;;;;;;;;;14.98;100.00;100165.28;4995237;28;20637;-78
2021/09/02 01:34:17;;;;;;;;;;;;;;;14.90;100.00;100166.47;4994138;28;19932;-78
2021/09/02 01:36:42;;;;;;;;;;;;;;;14.90;100.00;100167.31;5002419;28;19925;-78
2021/09/02 01:39:08;;;;;;;;;;;;;;;14.94;100.00;100165.44;4994766;28;19922;-78
2021/09/02 01:41:33;;;;;;;;;;;;;;;14.81;100.00;100160.66;4998001;28;19925;-78
2021/09/02 01:43:58;;;;;;;;;;;;;;;15.01;100.00;100160.03;4993982;28;20487;-78
2021/09/02 01:46:24;;;;;;;;;;;;;;;14.99;100.00;100154.03;4996547;28;20768;-78
2021/09/02 01:48:49;;;;;;;;;;;;;;;14.62;100.00;100162.13;4996408;28;19944;-77
2021/09/02 01:51:14;;;;;;;;;;;;;;;14.89;100.00;100157.81;4996605;28;19925;-77
2021/09/02 01:53:41;;;;;;;;;;;;;;;14.87;100.00;100159.63;4995780;28;19957;-78
2021/09/02 01:56:06;;;;;;;;;;;;;;;14.69;100.00;100154.97;4997785;28;19963;-78
2021/09/02 01:58:32;;;;;;;;;;;;;;;14.76;100.00;100159.09;5003583;28;19945;-77
2021/09/02 02:00:57;;;;;;;;;;;;;;;14.58;100.00;100153.56;4997189;28;19918;-78
2021/09/02 02:03:22;;;;;;;;;;;;;;;14.77;100.00;100150.41;5002351;28;19926;-77
2021/09/02 02:05:48;;;;;;;;;;;;;;;14.89;100.00;100155.22;4992904;28;19929;-77
2021/09/02 02:08:14;;;;;;;;;;;;;;;14.90;100.00;100151.72;4996855;28;19939;-78
2021/09/02 02:10:39;;;;;;;;;;;;;;;14.61;100.00;100153.47;5001891;28;19941;-78
2021/09/02 02:13:05;;;;;;;;;;;;;;;14.51;100.00;100151.19;4994377;28;19921;-78
2021/09/02 02:15:30;;;;;;;;;;;;;;;14.63;100.00;100154.28;4996705;28;19925;-78
2021/09/02 02:17:55;;;;;;;;;;;;;;;14.67;100.00;100154.19;4994444;28;19917;-78
2021/09/02 02:20:21;;;;;;;;;;;;;;;14.55;100.00;100151.09;4995936;28;20417;-78
2021/09/02 02:22:46;;;;;;;;;;;;;;;14.53;100.00;100151.97;4994707;28;19926;-78
2021/09/02 02:25:12;;;;;;;;;;;;;;;14.59;100.00;100149.22;4996745;28;19921;-78
2021/09/02 02:27:38;;;;;;;;;;;;;;;14.49;100.00;100146.03;4995923;28;19965;-78
2021/09/02 02:30:04;;;;;;;;;;;;;;;14.25;100.00;100141.56;4994795;28;19921;-78
2021/09/02 02:32:29;;;;;;;;;;;;;;;14.35;100.00;100140.41;4993914;28;20309;-77
2021/09/02 02:34:55;;;;;;;;;;;;;;;14.46;100.00;100140.94;4996212;28;19922;-78
2021/09/02 02:37:20;;;;;;;;;;;;;;;14.28;100.00;100142.34;4996249;28;20488;-78
2021/09/02 02:39:45;;;;;;;;;;;;;;;14.27;100.00;100132.00;4992496;28;19918;-78
2021/09/02 02:42:10;;;;;;;;;;;;;;;14.42;100.00;100139.34;4995567;28;19922;-78
2021/09/02 02:44:36;;;;;;;;;;;;;;;14.46;100.00;100135.78;5010718;28;19922;-77
2021/09/02 02:47:02;;;;;;;;;;;;;;;14.37;100.00;100129.09;4995548;28;19924;-78
2021/09/02 02:49:27;;;;;;;;;;;;;;;14.09;100.00;100141.16;4995828;28;19913;-78
2021/09/02 02:51:53;;;;;;;;;;;;;;;14.14;100.00;100134.97;4993137;28;19945;-78
2021/09/02 02:54:18;;;;;;;;;;;;;;;14.21;100.00;100131.31;4997746;28;19913;-78
2021/09/02 02:56:43;;;;;;;;;;;;;;;14.19;100.00;100135.66;4977965;28;19925;-78
2021/09/02 02:59:09;;;;;;;;;;;;;;;14.29;100.00;100132.81;4996556;28;19948;-78
2021/09/02 03:01:37;;;;;;;;;;;;;;;14.23;100.00;100139.88;4993702;28;20653;-78
2021/09/02 03:04:02;;;;;;;;;;;;;;;14.42;100.00;100141.94;4990461;28;19924;-78
2021/09/02 03:06:27;;;;;;;;;;;;;;;14.22;100.00;100132.97;4993312;28;19918;-78
2021/09/02 03:08:54;;;;;;;;;;;;;;;14.36;100.00;100139.50;5009470;28;19972;-77
2021/09/02 03:11:20;;;;;;;;;;;;;;;14.39;100.00;100134.22;4998925;28;19922;-78
2021/09/02 03:13:46;;;;;;;;;;;;;;;14.30;100.00;100125.00;4992402;28;19926;-78
2021/09/02 03:16:11;;;;;;;;;;;;;;;14.36;100.00;100130.00;4993085;28;19914;-78
2021/09/02 03:18:36;;;;;;;;;;;;;;;14.25;100.00;100131.19;4991220;28;19940;-77
2021/09/02 03:21:01;;;;;;;;;;;;;;;14.31;100.00;100128.44;4990782;28;20300;-77
2021/09/02 03:23:27;;;;;;;;;;;;;;;14.27;100.00;100130.25;4991113;28;19921;-77
2021/09/02 03:25:52;;;;;;;;;;;;;;;14.14;100.00;100128.91;4991488;28;19961;-77
2021/09/02 03:28:18;;;;;;;;;;;;;;;14.23;100.00;100126.94;4998782;28;19933;-77
2021/09/02 03:30:43;;;;;;;;;;;;;;;14.22;100.00;100127.81;5002234;28;19918;-78
2021/09/02 03:33:08;;;;;;;;;;;;;;;14.24;100.00;100125.19;4997974;28;19928;-77
2021/09/02 03:35:34;;;;;;;;;;;;;;;14.18;100.00;100121.00;4996559;28;19917;-78
2021/09/02 03:37:59;;;;;;;;;;;;;;;14.25;100.00;100126.03;5012215;28;19937;-78
2021/09/02 03:40:24;;;;;;;;;;;;;;;14.11;100.00;100119.50;4994905;28;19913;-77
2021/09/02 03:42:50;;;;;;;;;;;;;;;14.06;100.00;100121.38;5003361;28;19971;-78
2021/09/02 03:45:15;;;;;;;;;;;;;;;13.93;100.00;100120.00;4996812;28;20285;-78
2021/09/02 03:47:45;;;;;;;;;;;;;;;13.96;100.00;100119.94;4997763;28;19961;-78
2021/09/02 03:50:10;;;;;;;;;;;;;;;13.91;100.00;100114.03;5013612;28;19921;-78
2021/09/02 03:52:35;;;;;;;;;;;;;;;14.05;100.00;100124.88;4997658;28;19929;-78
2021/09/02 03:55:01;;;;;;;;;;;;;;;13.97;100.00;100119.88;4997156;28;20301;-77
2021/09/02 03:57:26;;;;;;;;;;;;;;;13.81;100.00;100114.28;4997077;28;19922;-77
2021/09/02 03:59:51;;;;;;;;;;;;;;;13.91;100.00;100117.47;5004014;28;20305;-78
2021/09/02 04:02:17;;;;;;;;;;;;;;;13.80;100.00;100112.59;4998576;28;19929;-77
2021/09/02 04:04:42;;;;;;;;;;;;;;;13.80;100.00;100110.00;4994737;28;19921;-78
2021/09/02 04:07:07;;;;;;;;;;;;;;;13.92;100.00;100115.72;5003282;28;19936;-78
2021/09/02 04:09:34;;;;;;;;;;;;;;;13.86;100.00;100113.31;4996095;28;19917;-77
2021/09/02 04:11:59;;;;;;;;;;;;;;;13.78;100.00;100110.94;4996672;28;20238;-78
2021/09/02 04:14:24;;;;;;;;;;;;;;;13.88;100.00;100114.97;5005446;28;19965;-78
2021/09/02 04:16:50;;;;;;;;;;;;;;;13.77;100.00;100111.81;5011355;28;19924;-78
2021/09/02 04:19:15;;;;;;;;;;;;;;;13.52;100.00;100115.03;4998938;28;19996;-78
2021/09/02 04:21:40;;;;;;;;;;;;;;;13.67;100.00;100112.97;4999169;28;19918;-77
2021/09/02 04:24:06;;;;;;;;;;;;;;;13.83;100.00;100116.00;4995845;28;19922;-78
2021/09/02 04:26:31;;;;;;;;;;;;;;;13.84;100.00;100115.09;5014090;28;19929;-78
2021/09/02 04:28:56;;;;;;;;;;;;;;;13.86;100.00;100103.78;5014346;28;20484;-77
2021/09/02 04:31:22;;;;;;;;;;;;;;;13.82;100.00;100107.34;4998214;28;19964;-77
2021/09/02 04:33:47;;;;;;;;;;;;;;;13.86;100.00;100108.97;5012129;28;19992;-77
2021/09/02 04:36:12;;;;;;;;;;;;;;;13.75;100.00;100111.88;4998098;28;19918;-77
2021/09/02 04:38:38;;;;;;;;;;;;;;;13.77;100.00;100115.25;4995957;28;19940;-78
2021/09/02 04:41:03;;;;;;;;;;;;;;;13.86;100.00;100118.47;4996842;28;19924;-78
2021/09/02 04:43:28;;;;;;;;;;;;;;;13.77;100.00;100115.25;4996211;28;20460;-78
2021/09/02 04:45:53;;;;;;;;;;;;;;;13.72;100.00;100111.94;4998118;28;19922;-78
2021/09/02 04:48:20;;;;;;;;;;;;;;;13.62;100.00;100120.84;4994815;28;19929;-77
2021/09/02 04:50:47;;;;;;;;;;;;;;;13.79;100.00;100116.06;5000041;28;19960;-77
2021/09/02 04:53:12;;;;;;;;;;;;;;;13.91;100.00;100120.06;5000827;28;20419;-77
2021/09/02 04:55:38;;;;;;;;;;;;;;;13.73;100.00;100116.25;4996500;28;19961;-78
2021/09/02 04:58:07;;;;;;;;;;;;;;;13.49;100.00;100120.31;4998604;28;19918;-78
2021/09/02 05:00:33;;;;;;;;;;;;;;;13.32;100.00;100114.72;4993964;28;19940;-77
2021/09/02 05:02:59;;;;;;;;;;;;;;;13.47;100.00;100121.25;4999091;28;19976;-78
2021/09/02 05:05:24;;;;;;;;;;;;;;;13.45;100.00;100123.03;4993590;28;19918;-78
2021/09/02 05:07:50;;;;;;;;;;;;;;;13.58;100.00;100129.59;4993315;28;19972;-78
2021/09/02 05:10:15;;;;;;;;;;;;;;;13.50;100.00;100127.22;5001095;28;19929;-78
2021/09/02 05:12:40;;;;;;;;;;;;;;;13.40;100.00;100125.72;4995539;28;19922;-78
2021/09/02 05:15:05;;;;;;;;;;;;;;;13.41;100.00;100126.56;4995591;28;20488;-77
2021/09/02 05:17:31;;;;;;;;;;;;;;;13.38;100.00;100127.50;4995054;28;19917;-78
2021/09/02 05:19:56;;;;;;;;;;;;;;;13.48;100.00;100130.69;5000640;28;19968;-77
2021/09/02 05:22:21;;;;;;;;;;;;;;;13.61;100.00;100134.66;4993436;28;19918;-77
2021/09/02 05:24:47;;;;;;;;;;;;;;;13.47;100.00;100137.63;4992948;28;19924;-77
2021/09/02 05:27:12;;;;;;;;;;;;;;;13.64;100.00;100138.91;4990765;28;19918;-77
2021/09/02 05:29:37;;;;;;;;;;;;;;;13.64;100.00;100132.03;4988707;28;19991;-77
2021/09/02 05:32:03;;;;;;;;;;;;;;;13.73;100.00;100134.38;4991815;28;19933;-77
2021/09/02 05:34:28;;;;;;;;;;;;;;;13.89;100.00;100131.34;4989126;28;20459;-77
2021/09/02 05:36:53;;;;;;;;;;;;;;;13.91;100.00;100132.16;5007201;28;19921;-77
2021/09/02 05:39:19;;;;;;;;;;;;;;;13.80;100.00;100137.63;4992129;28;20004;-77
2021/09/02 05:41:44;;;;;;;;;;;;;;;13.97;100.00;100138.00;4992977;28;19918;-77
2021/09/02 05:44:11;;;;;;;;;;;;;;;14.14;100.00;100131.50;4990386;28;19953;-77
2021/09/02 05:46:37;;;;;;;;;;;;;;;14.05;100.00;100135.22;4993114;28;19928;-77
2021/09/02 05:49:03;;;;;;;;;;;;;;;13.84;100.00;100130.63;4993034;28;19917;-77
2021/09/02 05:51:28;;;;;;;;;;;;;;;13.92;100.00;100134.72;4994954;28;19917;-77
2021/09/02 05:53:53;;;;;;;;;;;;;;;14.12;100.00;100128.97;4994607;28;20799;-77
2021/09/02 05:56:18;;;;;;;;;;;;;;;14.40;100.00;100130.75;5000988;28;19936;-77
2021/09/02 05:58:44;;;;;;;;;;;;;;;14.50;100.00;100121.81;4994156;28;20008;-77
2021/09/02 06:01:09;;;;;;;;;;;;;;;14.58;100.00;100117.28;4993710;28;19926;-77
2021/09/02 06:03:34;;;;;;;;;;;;;;;14.47;100.00;100121.06;5008524;28;20385;-78
2021/09/02 06:06:00;;;;;;;;;;;;;;;14.51;100.00;100120.06;4991871;28;19918;-77
2021/09/02 06:08:25;;;;;;;;;;;;;;;14.97;100.00;100121.28;4990485;28;19928;-77
2021/09/02 06:10:50;;;;;;;;;;;;;;;15.35;100.00;100122.59;4991306;28;19921;-77
2021/09/02 06:13:15;;;;;;;;;;;;;;;15.52;100.00;100121.19;4989428;28;20897;-77
2021/09/02 06:15:41;;;;;;;;;;;;;;;15.62;100.00;100130.34;4998163;28;19926;-76
2021/09/02 06:18:06;;;;;;;;;;;;;;;16.01;100.00;100127.25;4992725;28;19928;-76
2021/09/02 06:20:32;;;;;;;;;;;;;;;16.17;100.00;100133.59;4993426;28;19921;-77
2021/09/02 06:22:57;;;;;;;;;;;;;;;16.33;100.00;100133.88;4990911;28;19925;-77
2021/09/02 06:25:23;;;;;;;;;;;;;;;16.29;100.00;100134.91;4999285;28;19922;-77
2021/09/02 06:27:48;;;;;;;;;;;;;;;16.20;100.00;100133.47;5007135;28;19917;-76
2021/09/02 06:30:13;;;;;;;;;;;;;;;16.20;100.00;100130.03;4991053;28;20385;-77
2021/09/02 06:32:39;;;;;;;;;;;;;;;15.91;100.00;100131.09;4991562;28;19922;-77
2021/09/02 06:35:04;;;;;;;;;;;;;;;16.28;100.00;100139.25;4992514;28;20602;-77
2021/09/02 06:37:31;;;;;;;;;;;;;;;16.58;100.00;100139.00;4990969;28;19957;-77
2021/09/02 06:39:56;;;;;;;;;;;;;;;16.46;100.00;100148.09;4992459;28;19975;-77
2021/09/02 06:42:21;;;;;;;;;;;;;;;15.95;100.00;100146.53;5000038;28;20392;-77
2021/09/02 06:44:46;;;;;;;;;;;;;;;16.55;100.00;100148.66;4993568;28;19918;-77
2021/09/02 06:47:12;;;;;;;;;;;;;;;17.07;100.00;100141.44;4992023;28;19918;-77
2021/09/02 06:49:37;;;;;;;;;;;;;;;16.16;100.00;100152.69;4993891;28;20296;-77
2021/09/02 06:52:03;;;;;;;;;;;;;;;15.67;100.00;100150.06;4990797;28;20487;-77
2021/09/02 06:54:28;;;;;;;;;;;;;;;16.08;100.00;100155.56;4989993;28;19914;-77
2021/09/02 06:56:53;;;;;;;;;;;;;;;16.04;100.00;100159.19;4989811;28;20385;-77
2021/09/02 06:59:20;;;;;;;;;;;;;;;16.68;100.00;100161.13;4988542;28;19921;-76
2021/09/02 07:01:46;;;;;;;;;;;;;;;16.21;100.00;100157.72;4992082;28;19918;-76
2021/09/02 07:04:11;;;;;;;;;;;;;;;15.33;100.00;100168.53;4991429;28;20036;-77
2021/09/02 07:06:37;;;;;;;;;;;;;;;15.91;100.00;100157.06;4990135;28;20359;-77
2021/09/02 07:09:02;;;;;;;;;;;;;;;15.91;100.00;100165.72;5006981;28;19924;-77
2021/09/02 07:11:27;;;;;;;;;;;;;;;15.83;100.00;100163.41;4992421;28;19925;-76
2021/09/02 07:13:52;;;;;;;;;;;;;;;16.29;100.00;100166.94;5012215;28;19921;-77
2021/09/02 07:16:18;;;;;;;;;;;;;;;16.36;100.00;100164.97;4991108;28;19972;-77
2021/09/02 07:18:43;;;;;;;;;;;;;;;17.43;100.00;100159.91;4993069;28;19972;-77
2021/09/02 07:21:08;;;;;;;;;;;;;;;16.56;100.00;100166.81;4991663;28;19925;-77
2021/09/02 07:23:34;;;;;;;;;;;;;;;15.96;100.00;100170.75;4991975;28;19921;-77
2021/09/02 07:25:59;;;;;;;;;;;;;;;16.45;100.00;100163.78;4994082;28;19930;-76
2021/09/02 07:28:24;;;;;;;;;;;;;;;16.38;100.00;100164.91;5006311;28;20417;-76
2021/09/02 07:30:49;;;;;;;;;;;;;;;16.90;100.00;100157.72;4998255;28;19918;-77
2021/09/02 07:33:15;;;;;;;;;;;;;;;16.40;100.00;100160.47;4991052;28;20384;-77
2021/09/02 07:35:40;;;;;;;;;;;;;;;16.55;100.00;100157.31;4990716;28;20038;-76
2021/09/02 07:38:06;;;;;;;;;;;;;;;16.69;100.00;100156.78;4990860;28;20373;-77
2021/09/02 07:40:31;;;;;;;;;;;;;;;16.60;100.00;100147.56;4990472;28;19973;-77
2021/09/02 07:42:57;;;;;;;;;;;;;;;16.23;100.00;100164.56;4990953;28;20017;-77
2021/09/02 07:45:22;;;;;;;;;;;;;;;16.02;100.00;100162.75;4990885;28;19926;-77
2021/09/02 07:47:47;;;;;;;;;;;;;;;16.47;100.00;100172.38;4997518;28;20290;-77
2021/09/02 07:50:13;;;;;;;;;;;;;;;17.37;100.00;100165.38;4988908;28;19922;-76
2021/09/02 07:52:39;;;;;;;;;;;;;;;16.98;100.00;100173.88;5009141;28;19971;-77
2021/09/02 07:55:07;;;;;;;;;;;;;;;17.38;100.00;100161.88;4988291;28;19918;-77
2021/09/02 07:57:33;;;;;;;;;;;;;;;17.21;100.00;100169.50;5007197;28;20997;-76
2021/09/02 07:59:58;;;;;;;;;;;;;;;17.28;100.00;100165.75;4992035;28;20020;-77
2021/09/02 08:02:23;;;;;;;;;;;;;;;17.35;100.00;100162.81;4990178;28;19928;-77
2021/09/02 08:04:49;;;;;;;;;;;;;;;18.06;100.00;100164.19;4992858;28;19917;-77
2021/09/02 08:07:14;;;;;;;;;;;;;;;18.21;100.00;100168.72;4992076;28;19946;-78
2021/09/02 08:09:39;;;;;;;;;;;;;;;18.48;100.00;100171.03;4990787;28;19932;-77
2021/09/02 08:12:05;;;;;;;;;;;;;;;18.04;100.00;100171.22;4998692;28;20378;-77
2021/09/02 08:14:30;;;;;;;;;;;;;;;18.21;100.00;100168.72;5012755;28;19921;-77
2021/09/02 08:16:55;;;;;;;;;;;;;;;18.39;100.00;100173.13;4996744;28;19921;-77
2021/09/02 08:19:21;;;;;;;;;;;;;;;18.24;100.00;100176.41;4997883;28;20044;-77
2021/09/02 08:21:47;;;;;;;;;;;;;;;19.07;100.00;100175.22;5001270;28;19953;-77
2021/09/02 08:24:12;;;;;;;;;;;;;;;18.36;100.00;100175.03;4994367;28;19972;-77
2021/09/02 08:26:37;;;;;;;;;;;;;;;18.14;100.00;100177.75;4994382;28;19917;-77
2021/09/02 08:29:03;;;;;;;;;;;;;;;19.21;100.00;100183.22;4992883;28;19917;-77
2021/09/02 08:31:28;;;;;;;;;;;;;;;19.02;100.00;100182.41;4996458;28;21825;-77
2021/09/02 08:33:54;;;;;;;;;;;;;;;19.69;100.00;100170.44;4996250;28;19914;-77
2021/09/02 08:36:19;;;;;;;;;;;;;;;19.04;100.00;100174.50;4994869;28;20361;-77
2021/09/02 08:38:48;;;;;;;;;;;;;;;19.99;100.00;100170.59;4993675;28;19961;-76
2021/09/02 08:41:14;;;;;;;;;;;;;;;19.35;100.00;100173.84;5000035;28;20040;-76
2021/09/02 08:43:40;;;;;;;;;;;;;;;20.74;100.00;100173.59;4995597;28;20044;-77
2021/09/02 08:46:05;;;;;;;;;;;;;;;19.99;100.00;100175.84;4994722;28;19971;-77
2021/09/02 08:48:31;;;;;;;;;;;;;;;19.75;100.00;100174.47;5008785;28;19932;-77
2021/09/02 08:50:56;;;;;;;;;;;;;;;18.68;100.00;100181.38;4994882;28;19914;-77
2021/09/02 08:53:22;;;;;;;;;;;;;;;20.47;100.00;100173.31;4994894;28;19917;-77
2021/09/02 08:55:47;;;;;;;;;;;;;;;19.06;100.00;100173.50;4998468;28;19975;-77
2021/09/02 08:58:13;;;;;;;;;;;;;;;19.67;100.00;100163.56;5011579;28;19925;-77
2021/09/02 09:00:39;;;;;;;;;;;;;;;19.81;100.00;100163.72;4988114;28;19925;-76
2021/09/02 09:03:05;;;;;;;;;;;;;;;19.92;100.00;100166.63;4994771;28;19936;-77
2021/09/02 09:05:34;;;;;;;;;;;;;;;20.43;100.00;100171.78;5000707;28;20339;-77
2021/09/02 09:08:00;;;;;;;;;;;;;;;20.45;100.00;100165.53;4997956;28;19921;-76
2021/09/02 09:10:26;;;;;;;;;;;;;;;21.51;100.00;100169.25;4999256;28;19945;-76
2021/09/02 09:12:52;;;;;;;;;;;;;;;20.47;100.00;100163.66;4993317;28;20400;-77
2021/09/02 09:15:22;;;;;;;;;;;;;;;20.93;100.00;100167.34;4992032;28;19929;-77
2021/09/02 09:17:48;;;;;;;;;;;;;;;20.04;100.00;100160.75;4992287;28;20012;-77
2021/09/02 09:20:15;;;;;;;;;;;;;;;20.74;100.00;100157.88;4991815;28;20016;-76
2021/09/02 09:22:41;;;;;;;;;;;;;;;21.42;100.00;100157.53;4992637;28;19926;-77
2021/09/02 09:25:07;;;;;;;;;;;;;;;21.15;100.00;100156.50;4990291;28;20381;-77
2021/09/02 09:27:40;;;;;;;;;;;;;;;20.12;100.00;100169.97;4993158;28;19921;-77
2021/09/02 09:30:11;;;;;;;;;;;;;;;21.17;100.00;100160.72;4990960;28;20003;-76
2021/09/02 09:32:43;;;;;;;;;;;;;;;20.90;100.00;100168.34;4995737;28;20270;-76
2021/09/02 09:35:09;;;;;;;;;;;;;;;21.60;100.00;100150.38;4992693;28;19929;-76
2021/09/02 09:37:35;;;;;;;;;;;;;;;21.78;100.00;100155.44;5000501;28;19918;-77
2021/09/02 09:40:09;;;;;;;;;;;;;;;21.80;100.00;100158.81;4991079;28;20637;-77
2021/09/02 09:42:35;;;;;;;;;;;;;;;22.36;100.00;100156.31;5007501;28;19925;-77
2021/09/02 09:45:01;;;;;;;;;;;;;;;22.76;100.00;100152.84;4997169;28;20516;-77
2021/09/02 09:47:27;;;;;;;;;;;;;;;23.36;100.00;100148.09;4993578;28;19960;-77
2021/09/02 09:49:56;;;;;;;;;;;;;;;22.95;100.00;100149.88;4992081;28;20397;-77
2021/09/02 09:52:28;;;;;;;;;;;;;;;23.88;100.00;100149.84;4997800;28;19928;-77
2021/09/02 09:54:58;;;;;;;;;;;;;;;23.54;100.00;100151.28;4991281;28;20861;-77
2021/09/02 09:57:24;;;;;;;;;;;;;;;24.11;100.00;100150.88;4992996;28;20530;-76
2021/09/02 09:59:49;;;;;;;;;;;;;;;23.66;100.00;100142.56;4991761;28;19921;-77
2021/09/02 10:02:14;;;;;;;;;;;;;;;22.27;100.00;100157.72;4990483;28;19925;-77
2021/09/02 10:04:40;;;;;;;;;;;;;;;21.88;100.00;100151.34;4992399;28;19917;-76
2021/09/02 10:07:06;;;;;;;;;;;;;;;23.32;100.00;100147.47;4974402;28;19976;-77
2021/09/02 10:09:34;;;;;;;;;;;;;;;21.65;100.00;100150.09;4996450;28;19924;-77
2021/09/02 10:12:00;;;;;;;;;;;;;;;22.54;100.00;100156.00;4989937;28;19925;-76
2021/09/02 10:14:26;;;;;;;;;;;;;;;21.85;100.00;100151.50;4996040;28;20340;-76
2021/09/02 10:16:51;;;;;;;;;;;;;;;23.80;100.00;100139.84;4990185;28;19918;-77
2021/09/02 10:19:16;;;;;;;;;;;;;;;23.43;100.00;100143.28;4991869;28;19917;-76
2021/09/02 10:21:41;;;;;;;;;;;;;;;22.54;100.00;100145.50;4989481;28;19924;-76
2021/09/02 10:24:26;;;;;;;;;;;;;;;22.65;100.00;100136.94;4991088;28;19929;-77
2021/09/02 10:26:51;;;;;;;;;;;;;;;24.55;100.00;100138.16;4990951;28;19925;-76
2021/09/02 10:29:33;;;;;;;;;;;;;;;21.91;100.00;100135.41;5004176;28;19930;-76
2021/09/02 10:32:17;;;;;;;;;;;;;;;22.44;100.00;100139.16;5008325;28;19928;-77
2021/09/02 10:34:42;;;;;;;;;;;;;;;22.06;100.00;100134.47;4992103;28;19928;-77
2021/09/02 10:37:07;;;;;;;;;;;;;;;22.42;100.00;100134.91;4989241;28;20351;-77
2021/09/02 10:39:43;;;;;;;;;;;;;;;22.96;100.00;100127.88;4991422;28;19921;-77
2021/09/02 10:42:08;;;;;;;;;;;;;;;22.58;100.00;100132.16;5005060;28;19925;-76
2021/09/02 10:44:50;;;;;;;;;;;;;;;23.12;100.00;100130.38;5010843;28;19925;-77
2021/09/02 10:47:17;;;;;;;;;;;;;;;22.29;100.00;100134.84;4987372;28;20439;-76
2021/09/02 10:49:43;;;;;;;;;;;;;;;22.93;100.00;100135.16;4989528;28;19918;-76
2021/09/02 10:52:28;;;;;;;;;;;;;;;23.26;100.00;100128.63;4989097;28;20016;-76
2021/09/02 10:54:53;;;;;;;;;;;;;;;25.14;100.00;100129.47;4989753;28;19921;-77
2021/09/02 10:57:18;;;;;;;;;;;;;;;22.19;100.00;100128.44;4991371;28;20381;-76
2021/09/02 10:59:45;;;;;;;;;;;;;;;22.86;100.00;100123.34;4992058;28;19932;-76
2021/09/02 11:02:31;;;;;;;;;;;;;;;22.78;100.00;100126.47;4989997;28;19925;-76
2021/09/02 11:04:57;;;;;;;;;;;;;;;24.19;100.00;100122.22;4989453;28;19922;-76
2021/09/02 11:07:38;;;;;;;;;;;;;;;24.84;100.00;100122.88;4991053;28;19922;-77
2021/09/02 11:10:15;;;;;;;;;;;;;;;23.26;100.00;100121.56;4992515;28;19928;-77
2021/09/02 11:12:40;;;;;;;;;;;;;;;22.65;100.00;100115.06;4986584;28;19926;-77
2021/09/02 11:15:07;;;;;;;;;;;;;;;23.22;100.00;100120.13;5005869;28;19922;-76
2021/09/02 11:17:32;;;;;;;;;;;;;;;24.29;100.00;100116.28;4982660;28;19918;-78
2021/09/02 11:19:57;;;;;;;;;;;;;;;24.86;100.00;100120.97;4975247;28;19960;-76
2021/09/02 11:22:23;;;;;;;;;;;;;;;23.90;100.00;100123.44;4992949;28;19921;-77
2021/09/02 11:24:49;;;;;;;;;;;;;;;25.10;100.00;100112.19;4991771;28;19928;-77
2021/09/02 11:27:27;;;;;;;;;;;;;;;26.10;100.00;100113.34;4967000;28;19956;-77
2021/09/02 11:29:52;;;;;;;;;;;;;;;25.37;100.00;100110.13;4991346;28;19999;-77
2021/09/02 11:32:17;;;;;;;;;;;;;;;25.63;100.00;100107.28;4991317;28;19918;-77
2021/09/02 11:34:43;;;;;;;;;;;;;;;24.36;100.00;100107.03;4992798;28;19971;-76
2021/09/02 11:37:09;;;;;;;;;;;;;;;24.66;100.00;100103.16;4984599;28;19918;-76
2021/09/02 11:39:35;;;;;;;;;;;;;;;24.35;100.00;100106.16;4992742;28;20761;-76
2021/09/02 11:42:05;;;;;;;;;;;;;;;24.11;100.00;100103.50;4990525;28;19918;-77
2021/09/02 11:44:32;;;;;;;;;;;;;;;23.72;100.00;100100.06;4991628;28;19953;-77
2021/09/02 11:46:57;;;;;;;;;;;;;;;25.23;100.00;100091.91;4997748;28;19969;-76
2021/09/02 11:49:23;;;;;;;;;;;;;;;24.09;100.00;100107.22;4994622;28;19978;-76
2021/09/02 11:51:52;;;;;;;;;;;;;;;24.93;100.00;100093.22;4993386;28;19925;-77
2021/09/02 11:54:18;;;;;;;;;;;;;;;27.29;100.00;100086.06;4998344;28;19918;-77
2021/09/02 11:56:43;;;;;;;;;;;;;;;24.55;100.00;100096.88;4999197;28;19917;-78
2021/09/02 11:59:10;;;;;;;;;;;;;;;26.61;100.00;100094.28;4996295;28;19925;-76
2021/09/02 12:01:42;;;;;;;;;;;;;;;24.01;100.00;100091.94;5000810;28;19940;-78
2021/09/02 12:04:08;;;;;;;;;;;;;;;24.11;100.00;100089.53;5001936;28;19917;-77
2021/09/02 12:06:33;;;;;;;;;;;;;;;24.18;100.00;100086.34;5000132;28;19928;-77
2021/09/02 12:08:59;;;;;;;;;;;;;;;24.41;100.00;100089.09;4994961;28;20495;-76
2021/09/02 12:11:25;;;;;;;;;;;;;;;25.45;100.00;100088.44;4994352;28;20197;-76
2021/09/02 12:13:52;;;;;;;;;;;;;;;24.31;100.00;100085.44;5002364;28;19921;-76
2021/09/02 12:16:17;;;;;;;;;;;;;;;26.28;100.00;100085.47;4999332;28;19922;-77
2021/09/02 12:18:43;;;;;;;;;;;;;;;26.75;100.00;100081.75;4994835;28;20016;-77
2021/09/02 12:21:16;;;;;;;;;;;;;;;25.38;100.00;100085.44;5011315;28;19921;-77
2021/09/02 12:23:42;;;;;;;;;;;;;;;26.00;100.00;100071.00;4994842;28;19925;-81